Time;durP1;ratioP1;P1;durP2;ratioP2;P2;SDS_P1;SDS_P2;PMS_P1;PMS_P2;Temp;Humidity;BMP_temperature;BMP_pressure;BME280_temperature;BME280_humidity;BME280_pressure;Samples;Min_cycle;Max_cycle;Signal;HPM_P1;HPM_P2
2021/09/18 00:01:21;;;;;;;6.87;5.50;;;15.70;99.90;;;;;;6179704;28;20954;-67
2021/09/18 00:04:24;;;;;;;4.80;4.40;;;15.50;99.90;;;;;;6179901;28;20485;-66
2021/09/18 00:07:27;;;;;;;5.40;4.80;;;15.30;99.90;;;;;;6179665;28;20476;-67
2021/09/18 00:10:31;;;;;;;3.50;3.20;;;15.30;99.90;;;;;;6191224;28;20480;-67
2021/09/18 00:13:35;;;;;;;4.50;4.10;;;15.30;99.90;;;;;;6186401;28;20516;-67
2021/09/18 00:16:38;;;;;;;4.27;3.77;;;15.40;99.90;;;;;;6198079;28;20473;-65
2021/09/18 00:19:41;;;;;;;4.30;3.93;;;15.40;99.90;;;;;;6202714;28;20465;-65
2021/09/18 00:22:44;;;;;;;3.40;3.10;;;15.50;99.90;;;;;;6195648;28;20481;-66
2021/09/18 00:25:49;;;;;;;4.57;3.83;;;15.50;99.90;;;;;;6181992;28;20476;-66
2021/09/18 00:28:52;;;;;;;4.53;3.57;;;15.50;99.90;;;;;;6186145;28;20474;-65
2021/09/18 00:31:55;;;;;;;4.57;4.17;;;15.50;99.90;;;;;;6189481;28;20477;-65
2021/09/18 00:34:58;;;;;;;4.90;3.97;;;15.50;99.90;;;;;;6202720;28;20480;-65
2021/09/18 00:38:01;;;;;;;4.10;3.73;;;15.50;99.90;;;;;;6202745;28;20477;-65
2021/09/18 00:41:06;;;;;;;4.67;4.10;;;15.50;99.90;;;;;;6202960;28;20507;-66
2021/09/18 00:44:17;;;;;;;5.70;4.40;;;15.40;99.90;;;;;;6202686;28;20484;-66
2021/09/18 00:47:20;;;;;;;4.60;4.10;;;15.40;99.90;;;;;;6202720;28;20477;-66
2021/09/18 00:50:23;;;;;;;4.47;4.07;;;15.40;99.90;;;;;;6202890;28;20473;-66
2021/09/18 00:53:26;;;;;;;5.00;3.60;;;15.40;99.90;;;;;;6202924;28;20491;-65
2021/09/18 00:56:31;;;;;;;4.00;3.70;;;15.40;99.90;;;;;;6202749;28;20468;-65
2021/09/18 00:59:34;;;;;;;6.83;3.47;;;15.30;99.90;;;;;;6202433;28;20489;-65
2021/09/18 01:02:37;;;;;;;3.50;3.30;;;15.30;99.90;;;;;;6202660;28;20575;-66
2021/09/18 01:05:42;;;;;;;3.77;3.33;;;15.30;99.90;;;;;;6202575;28;20534;-66
2021/09/18 01:08:52;;;;;;;4.40;3.40;;;15.20;99.90;;;;;;6202527;28;20491;-66
2021/09/18 01:11:57;;;;;;;9.30;4.13;;;15.20;99.90;;;;;;6202553;28;20571;-66
2021/09/18 01:15:00;;;;;;;3.87;3.53;;;15.10;99.90;;;;;;6193112;28;20473;-66
2021/09/18 01:18:05;;;;;;;3.80;3.47;;;15.10;99.90;;;;;;6202066;28;20476;-66
2021/09/18 01:21:10;;;;;;;4.13;3.73;;;15.10;99.90;;;;;;6202248;28;20790;-66
2021/09/18 01:24:15;;;;;;;3.67;3.37;;;15.10;99.90;;;;;;6202042;28;20464;-66
2021/09/18 01:27:18;;;;;;;5.03;3.87;;;15.10;99.90;;;;;;6201778;28;20481;-66
2021/09/18 01:30:23;;;;;;;3.10;2.80;;;15.00;99.90;;;;;;6201765;28;20992;-66
2021/09/18 01:33:27;;;;;;;4.50;3.30;;;15.00;99.90;;;;;;6201381;28;20473;-66
2021/09/18 01:36:30;;;;;;;4.73;3.70;;;14.90;99.90;;;;;;6201397;28;20496;-65
2021/09/18 01:39:34;;;;;;;4.03;3.73;;;14.90;99.90;;;;;;6201600;28;20480;-65
2021/09/18 01:42:44;;;;;;;4.13;3.77;;;14.90;99.90;;;;;;6201327;28;20476;-66
2021/09/18 01:45:48;;;;;;;5.20;3.30;;;14.80;99.90;;;;;;6201559;28;20777;-66
2021/09/18 01:48:51;;;;;;;5.63;3.90;;;14.80;99.90;;;;;;6202068;28;20782;-66
2021/09/18 01:51:57;;;;;;;4.77;3.23;;;14.70;99.90;;;;;;6201788;28;20472;-66
2021/09/18 01:55:01;;;;;;;3.80;3.43;;;14.70;99.90;;;;;;6202373;28;20468;-66
2021/09/18 01:58:06;;;;;;;5.20;3.03;;;14.60;99.90;;;;;;6201353;28;20807;-66
2021/09/18 02:01:09;;;;;;;3.70;3.40;;;14.60;99.90;;;;;;6201456;28;20919;-66
2021/09/18 02:04:12;;;;;;;4.30;3.90;;;14.60;99.90;;;;;;6201308;28;20890;-66
2021/09/18 02:07:16;;;;;;;3.13;2.90;;;14.50;99.90;;;;;;6201257;28;20800;-66
2021/09/18 02:10:23;;;;;;;3.40;3.20;;;14.50;99.90;;;;;;6203326;28;20619;-67
2021/09/18 02:13:26;;;;;;;4.10;3.70;;;14.50;99.90;;;;;;6202889;28;20484;-66
2021/09/18 02:16:30;;;;;;;4.00;3.70;;;14.50;99.90;;;;;;6197319;28;20560;-66
2021/09/18 02:19:33;;;;;;;6.73;4.77;;;14.40;99.90;;;;;;6201649;28;20488;-66
2021/09/18 02:22:37;;;;;;;3.73;3.43;;;14.40;99.90;;;;;;6202160;28;20472;-66
2021/09/18 02:25:42;;;;;;;3.50;3.20;;;14.40;99.90;;;;;;6201398;28;20610;-65
2021/09/18 02:28:45;;;;;;;3.90;3.60;;;14.40;99.90;;;;;;6201774;28;20475;-66
2021/09/18 02:31:48;;;;;;;4.07;3.67;;;14.40;99.90;;;;;;6200968;28;20481;-66
2021/09/18 02:34:52;;;;;;;3.37;3.17;;;14.40;99.90;;;;;;6201383;28;20477;-66
2021/09/18 02:37:56;;;;;;;3.63;3.33;;;14.30;99.90;;;;;;6200994;28;20827;-66
2021/09/18 02:41:01;;;;;;;3.40;3.10;;;14.30;99.90;;;;;;6200685;28;20484;-66
2021/09/18 02:44:04;;;;;;;3.67;3.37;;;14.20;99.90;;;;;;6201017;28;20484;-65
2021/09/18 02:47:08;;;;;;;3.90;3.60;;;14.10;99.90;;;;;;6206047;28;20468;-65
2021/09/18 02:50:15;;;;;;;5.23;4.10;;;14.10;99.90;;;;;;6205759;28;20619;-66
2021/09/18 02:53:18;;;;;;;4.20;3.77;;;14.20;99.90;;;;;;6205431;28;20815;-65
2021/09/18 02:56:23;;;;;;;4.30;3.90;;;14.20;99.90;;;;;;6205644;28;20550;-66
2021/09/18 02:59:26;;;;;;;4.00;3.60;;;14.20;99.90;;;;;;6205305;28;20973;-66
2021/09/18 03:02:29;;;;;;;4.00;3.60;;;14.10;99.90;;;;;;6204991;28;20477;-66
2021/09/18 03:05:33;;;;;;;2.90;2.67;;;14.20;99.90;;;;;;6205341;28;21024;-66
2021/09/18 03:08:38;;;;;;;4.07;3.77;;;14.20;99.90;;;;;;6205199;28;20472;-66
2021/09/18 03:11:43;;;;;;;3.83;3.43;;;14.20;99.90;;;;;;6204956;28;20472;-66
2021/09/18 03:14:46;;;;;;;4.37;3.97;;;14.10;99.90;;;;;;6204758;28;20472;-66
2021/09/18 03:17:49;;;;;;;5.57;3.63;;;14.00;99.90;;;;;;6204776;28;21020;-66
2021/09/18 03:20:52;;;;;;;7.17;4.70;;;14.00;99.90;;;;;;6204615;28;20484;-66
2021/09/18 03:23:55;;;;;;;4.73;4.30;;;14.00;99.90;;;;;;6199738;28;20484;-66
2021/09/18 03:27:00;;;;;;;4.60;4.23;;;14.00;99.90;;;;;;6205235;28;20472;-66
2021/09/18 03:30:04;;;;;;;4.43;4.03;;;13.90;99.90;;;;;;6204773;28;20473;-66
2021/09/18 03:33:08;;;;;;;6.33;3.50;;;13.90;99.90;;;;;;6204533;28;20469;-65
2021/09/18 03:36:11;;;;;;;6.37;3.90;;;13.80;99.90;;;;;;6204787;28;20564;-65
2021/09/18 03:39:15;;;;;;;4.30;3.37;;;13.80;99.90;;;;;;6204088;28;20475;-66
2021/09/18 03:42:20;;;;;;;5.07;3.63;;;13.80;99.90;;;;;;6203955;28;20811;-66
2021/09/18 03:45:23;;;;;;;5.77;3.90;;;13.80;99.90;;;;;;6204081;28;20491;-66
2021/09/18 03:48:26;;;;;;;4.73;3.60;;;13.70;99.90;;;;;;6205790;28;20477;-66
2021/09/18 03:51:30;;;;;;;3.53;3.20;;;13.80;99.90;;;;;;6216710;28;20473;-65
2021/09/18 03:54:33;;;;;;;4.00;3.13;;;13.80;99.90;;;;;;6207401;28;20794;-65
2021/09/18 03:57:38;;;;;;;4.27;3.60;;;13.80;99.90;;;;;;6204036;28;20959;-65
2021/09/18 04:00:41;;;;;;;4.10;3.77;;;13.80;99.90;;;;;;6209081;28;20477;-65
2021/09/18 04:03:45;;;;;;;5.10;3.80;;;13.70;99.90;;;;;;6225939;28;20441;-65
2021/09/18 04:06:48;;;;;;;4.10;3.70;;;13.70;99.90;;;;;;6225961;28;20458;-65
2021/09/18 04:09:52;;;;;;;4.10;3.50;;;13.70;99.90;;;;;;6226420;28;20452;-66
2021/09/18 04:12:56;;;;;;;4.07;3.27;;;13.70;99.90;;;;;;6219848;28;20851;-65
2021/09/18 04:15:59;;;;;;;3.10;2.90;;;13.70;99.90;;;;;;6213791;28;20441;-66
2021/09/18 04:19:03;;;;;;;3.97;3.50;;;13.70;99.90;;;;;;6212970;28;20512;-65
2021/09/18 04:22:07;;;;;;;3.40;3.07;;;13.70;99.90;;;;;;6214966;28;20822;-65
2021/09/18 04:25:12;;;;;;;4.30;3.90;;;13.70;99.90;;;;;;6212025;28;20500;-66
2021/09/18 04:28:16;;;;;;;3.70;3.23;;;13.60;99.90;;;;;;6218844;28;20482;-65
2021/09/18 04:31:20;;;;;;;7.77;5.07;;;13.60;99.90;;;;;;6223823;28;20483;-65
2021/09/18 04:34:23;;;;;;;4.30;3.70;;;13.60;99.90;;;;;;6221177;28;20476;-65
2021/09/18 04:37:26;;;;;;;4.33;3.43;;;13.50;99.90;;;;;;6221868;28;20473;-65
2021/09/18 04:40:30;;;;;;;4.10;3.23;;;13.50;99.90;;;;;;6221477;28;20572;-65
2021/09/18 04:43:34;;;;;;;3.53;3.23;;;13.50;99.90;;;;;;6220072;28;20539;-65
2021/09/18 04:46:37;;;;;;;4.30;3.90;;;13.50;99.90;;;;;;6217762;28;20468;-65
2021/09/18 04:49:41;;;;;;;4.07;3.77;;;13.50;99.90;;;;;;6216590;28;20507;-65
2021/09/18 04:52:44;;;;;;;4.60;3.53;;;13.40;99.90;;;;;;6217171;28;20544;-65
2021/09/18 04:55:47;;;;;;;4.20;3.80;;;13.40;99.90;;;;;;6218634;28;20496;-65
2021/09/18 04:58:52;;;;;;;4.77;4.00;;;13.50;99.90;;;;;;6218147;28;20519;-65
2021/09/18 05:01:55;;;;;;;6.70;4.10;;;13.50;99.90;;;;;;6215701;28;20481;-65
2021/09/18 05:04:58;;;;;;;4.83;3.93;;;13.50;99.90;;;;;;6213936;28;20489;-65
2021/09/18 05:08:02;;;;;;;4.00;3.63;;;13.50;99.90;;;;;;6209869;28;20871;-65
2021/09/18 05:11:05;;;;;;;4.40;3.43;;;13.50;99.90;;;;;;6212267;28;20477;-65
2021/09/18 05:14:10;;;;;;;3.83;3.53;;;13.50;99.90;;;;;;6208331;28;20477;-65
2021/09/18 05:17:13;;;;;;;4.30;3.43;;;13.50;99.90;;;;;;6206477;28;20483;-65
2021/09/18 05:20:16;;;;;;;4.90;3.30;;;13.60;99.90;;;;;;6206093;28;20491;-65
2021/09/18 05:23:19;;;;;;;3.70;3.37;;;13.50;99.90;;;;;;6204797;28;20469;-65
2021/09/18 05:26:22;;;;;;;4.70;4.30;;;13.60;99.90;;;;;;6204596;28;20473;-65
2021/09/18 05:29:27;;;;;;;4.00;3.60;;;13.50;99.90;;;;;;6203441;28;21091;-65
2021/09/18 05:32:30;;;;;;;6.70;3.47;;;13.60;99.90;;;;;;6203561;28;20517;-65
2021/09/18 05:35:34;;;;;;;3.60;3.30;;;13.60;99.90;;;;;;6203838;28;20564;-65
2021/09/18 05:38:37;;;;;;;5.17;3.00;;;13.60;99.90;;;;;;6203055;28;20487;-65
2021/09/18 05:41:41;;;;;;;3.40;2.97;;;13.60;99.90;;;;;;6202734;28;20986;-65
2021/09/18 05:44:46;;;;;;;3.40;3.13;;;13.70;99.90;;;;;;6203091;28;20487;-65
2021/09/18 05:47:49;;;;;;;5.53;3.80;;;13.70;99.90;;;;;;6202849;28;20490;-65
2021/09/18 05:50:52;;;;;;;3.67;3.37;;;13.70;99.90;;;;;;6202144;28;20472;-65
2021/09/18 05:53:55;;;;;;;6.13;5.47;;;13.80;99.90;;;;;;6202135;28;20473;-65
2021/09/18 05:56:59;;;;;;;5.00;3.53;;;13.80;99.90;;;;;;6202190;28;20504;-65
2021/09/18 06:00:04;;;;;;;5.00;3.33;;;13.90;99.90;;;;;;6201901;28;20473;-66
2021/09/18 06:03:08;;;;;;;5.40;3.07;;;14.00;99.90;;;;;;6202132;28;20487;-65
2021/09/18 06:06:11;;;;;;;4.90;4.10;;;14.00;99.90;;;;;;6201679;28;20487;-65
2021/09/18 06:09:14;;;;;;;3.60;3.30;;;14.10;99.90;;;;;;6201690;28;20491;-65
2021/09/18 06:12:18;;;;;;;3.83;3.53;;;14.20;99.90;;;;;;6201943;28;20476;-65
2021/09/18 06:15:22;;;;;;;3.97;3.67;;;14.30;99.90;;;;;;6201201;28;20473;-65
2021/09/18 06:18:25;;;;;;;4.47;4.10;;;14.30;99.90;;;;;;6202070;28;20483;-65
2021/09/18 06:21:28;;;;;;;5.77;4.40;;;14.40;99.90;;;;;;6206303;28;20491;-66
2021/09/18 06:24:32;;;;;;;6.57;3.47;;;14.60;99.90;;;;;;6206785;28;20480;-65
2021/09/18 06:27:35;;;;;;;4.83;3.60;;;14.80;99.90;;;;;;6206133;28;20484;-65
2021/09/18 06:30:41;;;;;;;3.93;3.50;;;15.00;99.90;;;;;;6206369;28;20560;-65
2021/09/18 06:33:44;;;;;;;5.43;3.50;;;15.40;99.90;;;;;;6197552;28;20493;-66
2021/09/18 06:36:48;;;;;;;6.47;3.67;;;16.60;99.90;;;;;;6206020;28;20531;-66
2021/09/18 06:39:52;;;;;;;3.53;3.20;;;18.70;98.40;;;;;;6206170;28;20519;-65
2021/09/18 06:42:55;;;;;;;9.57;3.50;;;20.90;93.60;;;;;;6205907;28;20507;-65
2021/09/18 06:45:59;;;;;;;4.40;2.90;;;22.40;86.20;;;;;;6206012;28;20221;-66
2021/09/18 06:49:03;;;;;;;7.57;4.93;;;23.20;80.10;;;;;;6205894;28;20230;-66
2021/09/18 06:52:07;;;;;;;4.03;3.63;;;23.90;75.50;;;;;;6204677;28;20741;-65
2021/09/18 06:55:10;;;;;;;3.57;3.10;;;24.00;72.20;;;;;;6205422;28;20600;-65
2021/09/18 06:58:13;;;;;;;5.17;4.27;;;25.20;68.90;;;;;;6205493;28;20230;-65
2021/09/18 07:01:18;;;;;;;3.77;3.17;;;26.70;62.20;;;;;;6204739;28;20245;-65
2021/09/18 07:04:22;;;;;;;4.63;2.80;;;28.20;56.10;;;;;;6191657;28;20233;-65
2021/09/18 07:07:28;;;;;;;6.40;2.97;;;28.80;51.60;;;;;;6205283;28;20237;-65
2021/09/18 07:10:31;;;;;;;3.90;3.13;;;29.40;50.40;;;;;;6205619;28;20304;-65
2021/09/18 07:13:34;;;;;;;4.57;3.33;;;30.00;47.40;;;;;;6198435;28;20271;-66
2021/09/18 07:16:39;;;;;;;4.57;3.23;;;30.70;46.20;;;;;;6199959;28;20221;-66
2021/09/18 07:19:42;;;;;;;4.13;3.03;;;32.20;42.90;;;;;;6204872;28;20259;-66
2021/09/18 07:22:45;;;;;;;5.63;2.70;;;33.10;40.30;;;;;;6204511;28;20233;-65
2021/09/18 07:25:49;;;;;;;3.33;2.47;;;33.70;38.50;;;;;;6199312;28;20252;-65
2021/09/18 07:28:52;;;;;;;4.35;3.08;;;34.70;37.00;;;;;;6205057;28;20228;-65
2021/09/18 07:31:56;;;;;;;2.80;2.60;;;35.60;34.60;;;;;;6204108;28;20264;-64
2021/09/18 07:35:05;;;;;;;2.75;2.50;;;36.70;33.10;;;;;;6204879;28;20233;-65
2021/09/18 07:38:10;;;;;;;3.00;2.70;;;37.60;31.30;;;;;;6200265;28;20240;-65
2021/09/18 07:41:15;;;;;;;3.47;3.17;;;38.40;30.40;;;;;;6204398;28;20344;-65
2021/09/18 07:44:18;;;;;;;3.60;2.25;;;39.10;29.50;;;;;;6204283;28;20233;-65
2021/09/18 07:47:22;;;;;;;3.00;2.47;;;40.00;27.70;;;;;;6203110;28;20239;-65
2021/09/18 07:50:26;;;;;;;3.55;2.78;;;40.90;26.60;;;;;;6202837;28;20781;-66
2021/09/18 07:53:29;;;;;;;3.10;2.40;;;41.40;25.70;;;;;;6202829;28;20233;-66
2021/09/18 07:56:32;;;;;;;3.03;2.70;;;42.10;25.40;;;;;;6203149;28;20553;-65
2021/09/18 07:59:35;;;;;;;3.92;2.60;;;42.70;24.50;;;;;;6202722;28;20319;-66
2021/09/18 08:02:40;;;;;;;2.88;2.60;;;43.10;23.90;;;;;;6203331;28;20229;-66
2021/09/18 08:05:44;;;;;;;4.05;2.00;;;43.40;23.50;;;;;;6204463;28;20681;-65
2021/09/18 08:08:47;;;;;;;3.20;2.90;;;43.90;23.10;;;;;;6204207;28;20236;-66
2021/09/18 08:11:51;;;;;;;3.95;2.60;;;44.40;22.70;;;;;;6203863;28;20225;-66
2021/09/18 08:14:54;;;;;;;2.40;2.15;;;44.60;22.40;;;;;;6203946;28;20229;-66
2021/09/18 08:17:59;;;;;;;2.22;2.00;;;45.20;21.50;;;;;;6203852;28;20258;-66
2021/09/18 08:21:04;;;;;;;4.13;2.30;;;45.90;20.90;;;;;;6203279;28;20710;-66
2021/09/18 08:24:07;;;;;;;2.00;1.55;;;46.30;19.90;;;;;;6203607;28;20240;-66
2021/09/18 08:27:11;;;;;;;2.20;2.00;;;46.60;19.60;;;;;;6203205;28;20554;-67
2021/09/18 08:30:14;;;;;;;1.98;1.77;;;47.10;19.20;;;;;;6203800;28;20234;-66
2021/09/18 08:33:19;;;;;;;2.53;1.70;;;47.50;18.30;;;;;;6203210;28;20242;-66
2021/09/18 08:36:22;;;;;;;1.77;1.60;;;47.70;17.90;;;;;;6203624;28;20232;-66
2021/09/18 08:39:25;;;;;;;1.80;1.70;;;48.30;17.90;;;;;;6202963;28;20315;-66
2021/09/18 08:42:29;;;;;;;1.80;1.70;;;48.90;17.40;;;;;;6200927;28;20237;-66
2021/09/18 08:45:34;;;;;;;2.80;2.47;;;49.40;17.20;;;;;;6203200;28;20240;-66
2021/09/18 08:48:42;;;;;;;3.03;2.20;;;49.50;16.70;;;;;;6203388;28;20231;-66
2021/09/18 08:51:46;;;;;;;3.33;2.30;;;50.10;16.90;;;;;;6203296;28;20229;-66
2021/09/18 08:54:49;;;;;;;3.17;2.50;;;50.30;17.40;;;;;;6203477;28;20207;-66
2021/09/18 08:57:53;;;;;;;3.28;2.58;;;50.20;17.10;;;;;;6202091;28;20258;-66
2021/09/18 09:00:57;;;;;;;2.30;2.10;;;50.20;17.60;;;;;;6201473;28;20228;-66
2021/09/18 09:04:07;;;;;;;2.17;2.08;;;50.70;16.50;;;;;;6202034;28;20358;-66
2021/09/18 09:07:17;;;;;;;2.85;2.25;;;51.30;16.50;;;;;;6201474;28;20240;-66
2021/09/18 09:10:27;;;;;;;3.40;2.45;;;52.10;16.60;;;;;;6200958;28;20842;-66
2021/09/18 09:13:31;;;;;;;2.78;2.45;;;52.10;16.50;;;;;;6190829;28;20223;-66
2021/09/18 09:16:35;;;;;;;2.75;1.88;;;52.40;16.60;;;;;;6193494;28;20222;-66
2021/09/18 09:38:55;;;;;;;2.28;1.80;;;51.50;15.40;;;;;;5929226;29;20216;-68
2021/09/18 09:51:47;;;;;;;2.17;1.65;;;54.30;14.00;;;;;;6058779;23;20228;-73
2021/09/18 09:54:51;;;;;;;2.42;2.22;;;54.40;13.80;;;;;;6201817;28;20208;-71
2021/09/18 09:57:59;;;;;;;2.22;1.85;;;54.40;13.90;;;;;;6226042;28;20207;-66
2021/09/18 10:01:03;;;;;;;2.00;1.73;;;51.70;14.40;;;;;;6225440;28;20229;-67
2021/09/18 10:04:06;;;;;;;1.63;1.52;;;51.70;14.20;;;;;;6225396;28;20231;-70
2021/09/18 10:07:11;;;;;;;2.15;1.52;;;48.10;15.40;;;;;;6207340;28;20310;-70
2021/09/18 10:10:16;;;;;;;2.17;1.50;;;48.70;14.70;;;;;;6202578;28;20582;-69
2021/09/18 10:13:23;;;;;;;1.70;1.60;;;49.40;14.70;;;;;;6201361;28;20678;-67
2021/09/18 10:16:27;;;;;;;2.30;2.15;;;50.30;14.20;;;;;;6201506;28;20579;-66
2021/09/18 10:19:54;;;;;;;2.08;1.85;;;50.00;15.60;;;;;;6201148;28;20702;-66
2021/09/18 10:23:14;;;;;;;1.38;1.23;;;47.60;16.10;;;;;;6200907;28;20256;-68
2021/09/18 10:26:17;;;;;;;1.48;1.38;;;44.70;17.40;;;;;;6200805;28;20452;-67
2021/09/18 10:29:32;;;;;;;2.35;1.65;;;43.00;17.90;;;;;;6212503;28;20224;-66
2021/09/18 10:32:47;;;;;;;2.85;2.15;;;41.20;19.20;;;;;;6224596;28;20268;-65
2021/09/18 10:35:54;;;;;;;2.72;1.98;;;39.90;19.80;;;;;;6222258;28;20236;-65
2021/09/18 10:39:09;;;;;;;2.15;1.40;;;38.20;20.80;;;;;;6213344;28;20240;-65
2021/09/18 10:42:32;;;;;;;1.95;1.85;;;36.90;21.50;;;;;;6224015;28;20236;-65
2021/09/18 10:45:40;;;;;;;2.10;1.90;;;35.60;22.60;;;;;;6224874;28;20247;-65
2021/09/18 10:48:47;;;;;;;4.35;1.67;;;34.00;23.80;;;;;;6224758;28;20209;-65
2021/09/18 10:51:50;;;;;;;2.65;1.98;;;33.00;25.30;;;;;;6224574;28;20251;-67
2021/09/18 10:55:14;;;;;;;1.92;1.83;;;32.10;25.80;;;;;;6225225;28;20234;-66
2021/09/18 10:58:17;;;;;;;2.20;2.00;;;31.20;26.50;;;;;;6225166;28;20232;-68
2021/09/18 11:01:23;;;;;;;2.05;1.60;;;30.70;27.40;;;;;;6226476;28;20245;-66
2021/09/18 11:04:38;;;;;;;1.70;1.60;;;30.50;28.10;;;;;;6221798;28;20244;-67
2021/09/18 11:07:45;;;;;;;1.93;1.73;;;30.50;27.80;;;;;;6213420;28;20566;-67
2021/09/18 11:10:55;;;;;;;3.63;2.00;;;30.20;28.10;;;;;;6229837;28;20788;-66
2021/09/18 11:14:01;;;;;;;1.67;1.57;;;29.80;28.10;;;;;;6229714;28;20243;-67
2021/09/18 11:17:33;;;;;;;3.80;1.87;;;29.40;28.90;;;;;;6229252;28;20569;-65
2021/09/18 11:20:37;;;;;;;2.17;1.50;;;28.80;29.40;;;;;;6229136;28;20242;-66
2021/09/18 11:23:43;;;;;;;1.80;1.70;;;28.50;29.70;;;;;;6229853;28;20661;-66
2021/09/18 11:26:49;;;;;;;1.97;1.87;;;28.30;30.00;;;;;;6229552;28;20232;-66
2021/09/18 11:29:52;;;;;;;1.60;1.50;;;28.00;30.40;;;;;;6212316;28;20225;-67
2021/09/18 11:32:57;;;;;;;1.90;1.70;;;27.30;30.90;;;;;;6204872;28;20231;-64
2021/09/18 11:36:02;;;;;;;1.80;1.70;;;27.20;31.50;;;;;;6212948;28;20676;-65
2021/09/18 11:39:05;;;;;;;1.77;1.67;;;27.30;31.50;;;;;;6227307;28;20228;-64
2021/09/18 11:42:16;;;;;;;2.10;1.90;;;27.60;31.20;;;;;;6226270;28;20243;-65
2021/09/18 11:45:22;;;;;;;1.80;1.70;;;27.70;31.00;;;;;;6225344;28;20244;-65
2021/09/18 11:48:25;;;;;;;1.53;1.43;;;27.60;30.40;;;;;;6225633;28;20251;-65
2021/09/18 11:51:29;;;;;;;1.70;1.60;;;27.50;30.80;;;;;;6226073;28;20808;-65
2021/09/18 11:54:32;;;;;;;5.10;2.60;;;27.10;31.80;;;;;;6226176;28;20236;-65
2021/09/18 11:57:37;;;;;;;1.80;1.70;;;27.10;32.60;;;;;;6220903;28;20320;-65
2021/09/18 12:00:48;;;;;;;2.27;2.13;;;27.10;33.30;;;;;;6226353;28;20562;-65
2021/09/18 12:03:51;;;;;;;5.40;3.07;;;27.10;33.30;;;;;;6227904;28;20228;-65
2021/09/18 12:07:01;;;;;;;2.20;2.00;;;27.30;33.40;;;;;;6226831;28;20201;-65
2021/09/18 12:10:11;;;;;;;2.40;1.50;;;28.30;31.60;;;;;;6227652;28;20247;-65
2021/09/18 12:13:19;;;;;;;1.57;1.47;;;29.10;29.20;;;;;;6227944;28;20232;-65
2021/09/18 12:16:24;;;;;;;7.27;1.90;;;30.10;28.60;;;;;;6228171;28;20232;-65
2021/09/18 12:19:28;;;;;;;1.75;1.65;;;30.90;28.20;;;;;;6228583;28;20239;-65
2021/09/18 12:22:31;;;;;;;1.50;1.40;;;31.90;27.20;;;;;;6228208;28;20247;-65
2021/09/18 12:25:34;;;;;;;1.58;1.45;;;32.10;26.70;;;;;;6227593;28;20243;-65
2021/09/18 12:28:39;;;;;;;1.60;1.50;;;32.10;26.40;;;;;;6228173;28;20231;-66
2021/09/18 12:31:44;;;;;;;1.67;1.58;;;32.20;26.20;;;;;;6227628;28;20236;-65
2021/09/18 12:34:47;;;;;;;1.88;1.77;;;31.70;27.00;;;;;;6227960;28;20229;-65
2021/09/18 12:38:00;;;;;;;2.00;1.75;;;31.20;27.90;;;;;;6227422;28;20235;-64
2021/09/18 12:41:06;;;;;;;2.05;1.85;;;30.50;27.90;;;;;;6227418;28;20232;-64
2021/09/18 12:44:12;;;;;;;1.58;1.48;;;30.20;28.30;;;;;;6227159;28;20711;-64
2021/09/18 12:47:23;;;;;;;2.30;1.90;;;30.10;28.70;;;;;;6227627;28;20232;-65
2021/09/18 12:50:26;;;;;;;2.27;2.03;;;29.70;29.40;;;;;;6227568;28;20251;-65
2021/09/18 12:53:31;;;;;;;2.47;1.93;;;29.30;29.20;;;;;;6227251;28;20243;-65
2021/09/18 12:56:38;;;;;;;1.60;1.50;;;29.00;29.60;;;;;;6227085;28;20224;-65
2021/09/18 12:59:44;;;;;;;1.70;1.50;;;28.70;29.80;;;;;;6218444;28;20228;-65
2021/09/18 13:02:48;;;;;;;1.50;1.40;;;28.50;30.10;;;;;;6227412;28;20232;-66
2021/09/18 13:05:56;;;;;;;2.73;1.90;;;28.10;30.50;;;;;;6227362;28;20239;-67
2021/09/18 13:09:02;;;;;;;1.97;1.77;;;28.00;30.60;;;;;;6229488;28;20254;-67
2021/09/18 13:12:10;;;;;;;2.33;2.10;;;28.00;31.60;;;;;;6231373;28;20232;-67
2021/09/18 13:15:16;;;;;;;2.80;1.77;;;28.00;31.80;;;;;;6234809;28;20221;-67
2021/09/18 13:18:23;;;;;;;2.63;1.70;;;27.80;31.80;;;;;;6235491;28;20233;-67
2021/09/18 13:21:26;;;;;;;2.17;1.97;;;27.50;32.40;;;;;;6234325;28;20247;-66
2021/09/18 13:24:29;;;;;;;2.30;1.60;;;27.30;33.50;;;;;;6233996;28;20410;-66
2021/09/18 13:27:32;;;;;;;2.00;1.90;;;27.00;33.20;;;;;;6227841;28;20298;-66
2021/09/18 13:30:38;;;;;;;3.27;1.60;;;26.80;33.10;;;;;;6232351;28;20232;-66
2021/09/18 13:33:41;;;;;;;2.70;2.13;;;26.60;34.10;;;;;;6234493;28;20229;-66
2021/09/18 13:36:44;;;;;;;2.30;2.10;;;26.30;34.30;;;;;;6227042;28;20227;-66
2021/09/18 13:39:48;;;;;;;1.60;1.50;;;25.90;35.50;;;;;;6227645;28;20621;-66
2021/09/18 13:42:51;;;;;;;1.60;1.50;;;25.90;35.70;;;;;;6226639;28;20228;-66
2021/09/18 13:45:55;;;;;;;2.33;1.70;;;25.40;35.90;;;;;;6226216;28;20516;-66
2021/09/18 13:48:59;;;;;;;1.87;1.77;;;25.20;36.80;;;;;;6226462;28;20204;-66
2021/09/18 13:52:03;;;;;;;1.73;1.63;;;25.20;37.10;;;;;;6225738;28;20244;-66
2021/09/18 13:55:07;;;;;;;2.10;1.90;;;25.20;37.50;;;;;;6225949;28;20239;-66
2021/09/18 13:58:26;;;;;;;2.10;1.80;;;25.10;37.60;;;;;;6225933;28;20314;-67
2021/09/18 14:01:30;;;;;;;1.90;1.70;;;25.10;38.50;;;;;;6226211;28;20240;-66
2021/09/18 14:04:34;;;;;;;2.23;1.50;;;25.10;38.20;;;;;;6225889;28;20229;-66
2021/09/18 14:07:38;;;;;;;2.50;1.80;;;25.00;38.80;;;;;;6226294;28;20232;-66
2021/09/18 14:10:41;;;;;;;2.40;1.67;;;24.80;39.50;;;;;;6225866;28;20237;-66
2021/09/18 14:13:45;;;;;;;2.20;2.00;;;24.80;39.80;;;;;;6225796;28;20243;-66
2021/09/18 14:16:51;;;;;;;1.97;1.77;;;24.60;40.00;;;;;;6226628;28;20228;-66
2021/09/18 14:19:55;;;;;;;2.70;1.90;;;24.60;40.10;;;;;;6226083;28;20558;-66
2021/09/18 14:22:58;;;;;;;1.63;1.53;;;24.50;39.50;;;;;;6225572;28;20240;-66
2021/09/18 14:26:01;;;;;;;2.80;1.57;;;24.40;39.30;;;;;;6225416;28;20236;-66
2021/09/18 14:29:04;;;;;;;2.50;2.30;;;24.30;40.00;;;;;;6225739;28;20570;-66
2021/09/18 14:32:09;;;;;;;1.80;1.70;;;24.40;39.50;;;;;;6225672;28;20229;-66
2021/09/18 14:35:12;;;;;;;1.93;1.73;;;24.20;39.90;;;;;;6225716;28;20225;-66
2021/09/18 14:38:17;;;;;;;1.73;1.63;;;24.30;40.20;;;;;;6225062;28;20570;-66
2021/09/18 14:41:20;;;;;;;1.87;1.77;;;24.30;39.30;;;;;;6229176;28;20241;-66
2021/09/18 14:44:24;;;;;;;1.80;1.70;;;24.10;39.50;;;;;;6230590;28;20229;-66
2021/09/18 14:47:28;;;;;;;2.10;1.57;;;24.00;39.10;;;;;;6230341;28;20239;-66
2021/09/18 14:50:32;;;;;;;2.33;2.07;;;23.70;39.50;;;;;;6229908;28;20240;-66
2021/09/18 14:53:35;;;;;;;1.87;1.37;;;23.60;40.00;;;;;;6230198;28;20229;-66
2021/09/18 14:56:38;;;;;;;2.60;1.60;;;23.60;40.20;;;;;;6229703;28;20712;-66
2021/09/18 14:59:42;;;;;;;2.17;1.70;;;23.60;40.30;;;;;;6230155;28;20225;-66
2021/09/18 15:02:46;;;;;;;2.10;1.90;;;23.40;40.90;;;;;;6230088;28;20673;-66
2021/09/18 15:05:50;;;;;;;1.87;1.57;;;23.30;41.50;;;;;;6229582;28;20229;-65
2021/09/18 15:08:53;;;;;;;2.30;1.80;;;23.30;41.60;;;;;;6229454;28;20240;-65
2021/09/18 15:11:56;;;;;;;1.77;1.67;;;23.40;41.90;;;;;;6229327;28;20688;-65
2021/09/18 15:14:59;;;;;;;3.50;2.40;;;23.60;42.00;;;;;;6230114;28;20229;-65
2021/09/18 15:18:04;;;;;;;1.80;1.70;;;23.70;42.30;;;;;;6229407;28;20573;-66
2021/09/18 15:21:07;;;;;;;1.77;1.63;;;23.90;42.50;;;;;;6229430;28;20244;-66
2021/09/18 15:24:11;;;;;;;2.20;2.00;;;23.90;42.10;;;;;;6228946;28;20252;-67
2021/09/18 15:27:15;;;;;;;2.40;1.67;;;23.90;42.50;;;;;;6229339;28;20240;-66
2021/09/18 15:30:18;;;;;;;2.50;2.30;;;24.00;42.70;;;;;;6229315;28;20250;-66
2021/09/18 15:33:23;;;;;;;1.90;1.70;;;24.20;43.00;;;;;;6229436;28;20228;-67
2021/09/18 15:36:26;;;;;;;2.03;1.83;;;24.30;42.90;;;;;;6228851;28;20225;-66
2021/09/18 15:39:29;;;;;;;3.27;1.80;;;24.30;42.60;;;;;;6228849;28;20684;-66
2021/09/18 15:42:32;;;;;;;2.07;1.90;;;24.10;42.20;;;;;;6228558;28;20233;-66
2021/09/18 15:45:36;;;;;;;2.47;2.27;;;24.10;43.00;;;;;;6229248;28;20229;-66
2021/09/18 15:48:42;;;;;;;2.30;2.10;;;24.10;42.20;;;;;;6228679;28;20233;-66
2021/09/18 15:51:46;;;;;;;2.40;1.90;;;24.00;42.30;;;;;;6228215;28;20658;-65
2021/09/18 15:54:49;;;;;;;2.20;1.97;;;23.80;43.20;;;;;;6228623;28;20217;-65
2021/09/18 15:57:52;;;;;;;2.23;2.03;;;23.60;43.50;;;;;;6229152;28;20216;-65
2021/09/18 16:00:56;;;;;;;3.20;2.03;;;23.30;44.30;;;;;;6228367;28;20591;-65
2021/09/18 16:04:00;;;;;;;1.93;1.67;;;23.30;45.00;;;;;;6228351;28;20216;-65
2021/09/18 16:07:04;;;;;;;2.33;2.13;;;23.40;45.20;;;;;;6228276;28;20225;-65
2021/09/18 16:10:08;;;;;;;2.37;2.00;;;23.20;45.30;;;;;;6219235;28;20570;-65
2021/09/18 16:13:12;;;;;;;2.50;2.30;;;23.00;45.80;;;;;;6228259;28;20243;-65
2021/09/18 16:16:15;;;;;;;2.73;2.00;;;23.10;46.40;;;;;;6229097;28;20224;-65
2021/09/18 16:19:21;;;;;;;1.73;1.63;;;22.90;46.50;;;;;;6230305;28;20240;-65
2021/09/18 16:22:24;;;;;;;2.57;2.00;;;23.00;46.40;;;;;;6227188;28;20236;-65
2021/09/18 16:25:28;;;;;;;1.70;1.60;;;22.90;46.70;;;;;;6214864;28;20245;-65
2021/09/18 16:28:32;;;;;;;2.40;1.80;;;22.70;47.20;;;;;;6214947;28;20231;-65
2021/09/18 16:31:35;;;;;;;2.80;2.07;;;22.70;47.80;;;;;;6214506;28;20228;-67